sensor_id;sensor_type;location;lat;lon;timestamp;P1;durP1;ratioP1;P2;durP2;ratioP2
48993;SDS011;34804;49.214;12.276;2023-02-24T00:02:00;29.67;;;14.35;;
48993;SDS011;34804;49.214;12.276;2023-02-24T00:04:32;27.05;;;14.13;;
48993;SDS011;34804;49.214;12.276;2023-02-24T00:07:01;26.77;;;14.65;;
48993;SDS011;34804;49.214;12.276;2023-02-24T00:09:28;25.92;;;14.30;;
48993;SDS011;34804;49.214;12.276;2023-02-24T00:11:57;24.27;;;13.45;;
48993;SDS011;34804;49.214;12.276;2023-02-24T00:14:29;24.85;;;13.90;;
48993;SDS011;34804;49.214;12.276;2023-02-24T00:16:57;26.85;;;15.73;;
48993;SDS011;34804;49.214;12.276;2023-02-24T00:19:25;23.00;;;13.27;;
48993;SDS011;34804;49.214;12.276;2023-02-24T00:21:54;26.10;;;14.43;;
48993;SDS011;34804;49.214;12.276;2023-02-24T00:24:21;26.45;;;15.45;;
48993;SDS011;34804;49.214;12.276;2023-02-24T00:26:52;23.65;;;14.05;;
48993;SDS011;34804;49.214;12.276;2023-02-24T00:29:21;26.95;;;15.50;;
48993;SDS011;34804;49.214;12.276;2023-02-24T00:31:52;28.00;;;15.85;;
48993;SDS011;34804;49.214;12.276;2023-02-24T00:34:28;26.40;;;14.57;;
48993;SDS011;34804;49.214;12.276;2023-02-24T00:36:56;28.50;;;14.50;;
48993;SDS011;34804;49.214;12.276;2023-02-24T00:39:24;21.90;;;12.82;;
48993;SDS011;34804;49.214;12.276;2023-02-24T00:41:59;20.95;;;13.48;;
48993;SDS011;34804;49.214;12.276;2023-02-24T00:44:40;22.50;;;12.45;;
48993;SDS011;34804;49.214;12.276;2023-02-24T00:47:10;23.58;;;11.60;;
48993;SDS011;34804;49.214;12.276;2023-02-24T00:49:38;22.77;;;11.65;;
48993;SDS011;34804;49.214;12.276;2023-02-24T00:52:18;22.73;;;12.73;;
48993;SDS011;34804;49.214;12.276;2023-02-24T00:54:46;22.30;;;13.27;;
48993;SDS011;34804;49.214;12.276;2023-02-24T00:57:14;26.27;;;15.00;;
48993;SDS011;34804;49.214;12.276;2023-02-24T00:59:46;25.58;;;13.77;;
48993;SDS011;34804;49.214;12.276;2023-02-24T01:02:13;22.38;;;12.25;;
48993;SDS011;34804;49.214;12.276;2023-02-24T01:04:41;18.70;;;11.10;;
48993;SDS011;34804;49.214;12.276;2023-02-24T01:07:09;20.63;;;12.02;;
48993;SDS011;34804;49.214;12.276;2023-02-24T01:09:38;26.45;;;13.68;;
48993;SDS011;34804;49.214;12.276;2023-02-24T01:12:07;21.60;;;12.90;;
48993;SDS011;34804;49.214;12.276;2023-02-24T01:14:48;20.67;;;13.38;;
48993;SDS011;34804;49.214;12.276;2023-02-24T01:17:18;23.60;;;13.48;;
48993;SDS011;34804;49.214;12.276;2023-02-24T01:19:46;23.77;;;14.35;;
48993;SDS011;34804;49.214;12.276;2023-02-24T01:22:17;24.42;;;14.10;;
48993;SDS011;34804;49.214;12.276;2023-02-24T01:24:45;23.38;;;13.02;;
48993;SDS011;34804;49.214;12.276;2023-02-24T01:27:15;22.65;;;14.05;;
48993;SDS011;34804;49.214;12.276;2023-02-24T01:29:45;24.02;;;12.73;;
48993;SDS011;34804;49.214;12.276;2023-02-24T01:32:14;22.05;;;11.52;;
48993;SDS011;34804;49.214;12.276;2023-02-24T01:34:43;22.33;;;10.88;;
48993;SDS011;34804;49.214;12.276;2023-02-24T01:37:10;22.38;;;11.40;;
48993;SDS011;34804;49.214;12.276;2023-02-24T01:39:42;22.33;;;11.98;;
48993;SDS011;34804;49.214;12.276;2023-02-24T01:42:11;21.48;;;11.90;;
48993;SDS011;34804;49.214;12.276;2023-02-24T01:47:17;22.70;;;12.35;;
48993;SDS011;34804;49.214;12.276;2023-02-24T01:49:46;21.92;;;11.55;;
48993;SDS011;34804;49.214;12.276;2023-02-24T01:52:28;20.08;;;10.68;;
48993;SDS011;34804;49.214;12.276;2023-02-24T01:55:01;19.25;;;11.07;;
48993;SDS011;34804;49.214;12.276;2023-02-24T01:57:32;31.60;;;11.93;;
48993;SDS011;34804;49.214;12.276;2023-02-24T02:00:05;24.80;;;12.52;;
48993;SDS011;34804;49.214;12.276;2023-02-24T02:02:45;18.92;;;11.90;;
48993;SDS011;34804;49.214;12.276;2023-02-24T02:05:15;21.95;;;12.32;;
48993;SDS011;34804;49.214;12.276;2023-02-24T02:07:43;24.80;;;12.52;;
48993;SDS011;34804;49.214;12.276;2023-02-24T02:10:11;25.08;;;12.75;;
48993;SDS011;34804;49.214;12.276;2023-02-24T02:12:39;29.67;;;13.63;;
48993;SDS011;34804;49.214;12.276;2023-02-24T02:15:11;27.45;;;14.05;;
48993;SDS011;34804;49.214;12.276;2023-02-24T02:26:37;24.77;;;13.82;;
48993;SDS011;34804;49.214;12.276;2023-02-24T02:32:20;23.50;;;13.15;;
48993;SDS011;34804;49.214;12.276;2023-02-24T02:35:11;22.63;;;13.20;;
48993;SDS011;34804;49.214;12.276;2023-02-24T02:37:51;19.90;;;11.73;;
48993;SDS011;34804;49.214;12.276;2023-02-24T02:40:27;22.50;;;12.68;;
48993;SDS011;34804;49.214;12.276;2023-02-24T02:43:06;23.05;;;12.57;;
48993;SDS011;34804;49.214;12.276;2023-02-24T02:48:18;24.23;;;13.57;;
48993;SDS011;34804;49.214;12.276;2023-02-24T02:50:53;22.40;;;12.88;;
48993;SDS011;34804;49.214;12.276;2023-02-24T02:53:31;22.73;;;13.02;;
48993;SDS011;34804;49.214;12.276;2023-02-24T02:56:26;23.58;;;11.73;;
48993;SDS011;34804;49.214;12.276;2023-02-24T02:59:02;26.30;;;13.43;;
48993;SDS011;34804;49.214;12.276;2023-02-24T03:01:33;23.20;;;12.75;;
48993;SDS011;34804;49.214;12.276;2023-02-24T03:04:04;26.08;;;12.73;;
48993;SDS011;34804;49.214;12.276;2023-02-24T03:06:42;24.00;;;11.90;;
48993;SDS011;34804;49.214;12.276;2023-02-24T03:09:18;24.67;;;12.50;;
48993;SDS011;34804;49.214;12.276;2023-02-24T03:11:50;24.02;;;14.18;;
48993;SDS011;34804;49.214;12.276;2023-02-24T03:14:27;21.92;;;12.25;;
48993;SDS011;34804;49.214;12.276;2023-02-24T03:16:58;23.23;;;12.40;;
48993;SDS011;34804;49.214;12.276;2023-02-24T03:19:31;22.05;;;11.65;;
48993;SDS011;34804;49.214;12.276;2023-02-24T03:22:04;24.92;;;12.63;;
48993;SDS011;34804;49.214;12.276;2023-02-24T03:24:39;32.00;;;13.55;;
48993;SDS011;34804;49.214;12.276;2023-02-24T03:27:09;22.65;;;12.82;;
48993;SDS011;34804;49.214;12.276;2023-02-24T03:29:43;21.10;;;12.02;;
48993;SDS011;34804;49.214;12.276;2023-02-24T03:37:29;22.90;;;11.95;;
48993;SDS011;34804;49.214;12.276;2023-02-24T03:40:00;25.65;;;11.82;;
48993;SDS011;34804;49.214;12.276;2023-02-24T03:42:37;17.15;;;10.65;;
48993;SDS011;34804;49.214;12.276;2023-02-24T03:45:07;22.33;;;12.30;;
48993;SDS011;34804;49.214;12.276;2023-02-24T03:47:34;19.95;;;10.95;;
48993;SDS011;34804;49.214;12.276;2023-02-24T03:50:08;19.15;;;10.90;;
48993;SDS011;34804;49.214;12.276;2023-02-24T04:01:45;22.42;;;12.93;;
48993;SDS011;34804;49.214;12.276;2023-02-24T04:04:25;24.15;;;13.73;;
48993;SDS011;34804;49.214;12.276;2023-02-24T04:07:07;23.40;;;12.63;;
48993;SDS011;34804;49.214;12.276;2023-02-24T04:12:45;27.17;;;14.05;;
48993;SDS011;34804;49.214;12.276;2023-02-24T04:15:29;25.35;;;14.20;;
48993;SDS011;34804;49.214;12.276;2023-02-24T04:18:04;24.70;;;12.25;;
48993;SDS011;34804;49.214;12.276;2023-02-24T04:20:38;22.98;;;12.93;;
48993;SDS011;34804;49.214;12.276;2023-02-24T04:23:07;24.80;;;12.15;;
48993;SDS011;34804;49.214;12.276;2023-02-24T04:25:39;19.60;;;13.07;;
48993;SDS011;34804;49.214;12.276;2023-02-24T04:28:09;23.90;;;12.73;;
48993;SDS011;34804;49.214;12.276;2023-02-24T04:30:38;22.50;;;12.32;;
48993;SDS011;34804;49.214;12.276;2023-02-24T04:33:08;24.55;;;12.75;;
48993;SDS011;34804;49.214;12.276;2023-02-24T04:35:35;23.92;;;14.32;;
48993;SDS011;34804;49.214;12.276;2023-02-24T04:38:03;23.85;;;14.45;;
48993;SDS011;34804;49.214;12.276;2023-02-24T04:40:30;25.48;;;14.50;;
48993;SDS011;34804;49.214;12.276;2023-02-24T04:42:57;24.23;;;14.85;;
48993;SDS011;34804;49.214;12.276;2023-02-24T04:45:25;24.35;;;14.20;;
48993;SDS011;34804;49.214;12.276;2023-02-24T04:47:54;26.35;;;14.07;;
48993;SDS011;34804;49.214;12.276;2023-02-24T04:50:33;27.13;;;13.35;;
48993;SDS011;34804;49.214;12.276;2023-02-24T04:53:02;26.60;;;15.48;;
48993;SDS011;34804;49.214;12.276;2023-02-24T04:55:33;25.40;;;14.50;;
48993;SDS011;34804;49.214;12.276;2023-02-24T04:58:06;26.77;;;14.63;;
48993;SDS011;34804;49.214;12.276;2023-02-24T05:00:37;21.85;;;12.73;;
48993;SDS011;34804;49.214;12.276;2023-02-24T05:03:07;25.35;;;13.32;;
48993;SDS011;34804;49.214;12.276;2023-02-24T05:05:36;24.08;;;14.35;;
48993;SDS011;34804;49.214;12.276;2023-02-24T05:08:04;21.08;;;13.00;;
48993;SDS011;34804;49.214;12.276;2023-02-24T05:10:36;25.83;;;14.50;;
48993;SDS011;34804;49.214;12.276;2023-02-24T05:13:18;26.15;;;14.10;;
48993;SDS011;34804;49.214;12.276;2023-02-24T05:15:52;24.95;;;13.98;;
48993;SDS011;34804;49.214;12.276;2023-02-24T05:18:21;22.75;;;12.82;;
48993;SDS011;34804;49.214;12.276;2023-02-24T05:20:53;36.95;;;18.25;;
48993;SDS011;34804;49.214;12.276;2023-02-24T05:23:41;43.03;;;21.42;;
48993;SDS011;34804;49.214;12.276;2023-02-24T05:26:11;46.28;;;21.40;;
48993;SDS011;34804;49.214;12.276;2023-02-24T05:28:41;46.45;;;22.02;;
48993;SDS011;34804;49.214;12.276;2023-02-24T05:31:10;43.10;;;20.98;;
48993;SDS011;34804;49.214;12.276;2023-02-24T05:33:43;42.40;;;20.40;;
48993;SDS011;34804;49.214;12.276;2023-02-24T05:36:12;45.33;;;20.88;;
48993;SDS011;34804;49.214;12.276;2023-02-24T05:38:43;40.83;;;21.65;;
48993;SDS011;34804;49.214;12.276;2023-02-24T05:41:14;37.40;;;18.88;;
48993;SDS011;34804;49.214;12.276;2023-02-24T05:43:43;44.55;;;21.08;;
48993;SDS011;34804;49.214;12.276;2023-02-24T05:46:18;39.65;;;20.70;;
48993;SDS011;34804;49.214;12.276;2023-02-24T05:48:55;35.15;;;18.85;;
48993;SDS011;34804;49.214;12.276;2023-02-24T05:51:23;33.05;;;18.48;;
48993;SDS011;34804;49.214;12.276;2023-02-24T05:53:51;33.13;;;16.70;;
48993;SDS011;34804;49.214;12.276;2023-02-24T05:56:21;34.50;;;17.40;;
48993;SDS011;34804;49.214;12.276;2023-02-24T05:58:49;35.80;;;18.15;;
48993;SDS011;34804;49.214;12.276;2023-02-24T06:01:28;32.38;;;17.52;;
48993;SDS011;34804;49.214;12.276;2023-02-24T06:04:00;33.92;;;18.95;;
48993;SDS011;34804;49.214;12.276;2023-02-24T06:06:35;30.15;;;17.95;;
48993;SDS011;34804;49.214;12.276;2023-02-24T06:09:06;36.85;;;18.63;;
48993;SDS011;34804;49.214;12.276;2023-02-24T06:11:41;31.63;;;18.40;;
48993;SDS011;34804;49.214;12.276;2023-02-24T06:14:10;32.63;;;17.73;;
48993;SDS011;34804;49.214;12.276;2023-02-24T06:16:39;35.10;;;19.90;;
48993;SDS011;34804;49.214;12.276;2023-02-24T06:19:07;31.83;;;17.90;;
48993;SDS011;34804;49.214;12.276;2023-02-24T06:21:35;28.45;;;15.75;;
48993;SDS011;34804;49.214;12.276;2023-02-24T06:24:09;33.35;;;17.65;;
48993;SDS011;34804;49.214;12.276;2023-02-24T06:26:41;32.97;;;17.70;;
48993;SDS011;34804;49.214;12.276;2023-02-24T06:29:11;33.42;;;18.23;;
48993;SDS011;34804;49.214;12.276;2023-02-24T06:31:40;31.52;;;18.98;;
48993;SDS011;34804;49.214;12.276;2023-02-24T06:34:11;31.08;;;18.42;;
48993;SDS011;34804;49.214;12.276;2023-02-24T06:36:43;32.65;;;17.77;;
48993;SDS011;34804;49.214;12.276;2023-02-24T06:39:12;40.15;;;19.92;;
48993;SDS011;34804;49.214;12.276;2023-02-24T06:41:39;29.90;;;16.98;;
48993;SDS011;34804;49.214;12.276;2023-02-24T06:44:07;34.38;;;17.90;;
48993;SDS011;34804;49.214;12.276;2023-02-24T06:46:35;34.45;;;18.65;;
48993;SDS011;34804;49.214;12.276;2023-02-24T06:49:02;34.05;;;18.70;;
48993;SDS011;34804;49.214;12.276;2023-02-24T06:51:29;36.25;;;19.55;;
48993;SDS011;34804;49.214;12.276;2023-02-24T06:53:57;32.15;;;19.35;;
48993;SDS011;34804;49.214;12.276;2023-02-24T06:56:25;37.33;;;19.10;;
48993;SDS011;34804;49.214;12.276;2023-02-24T06:58:53;37.47;;;19.65;;
48993;SDS011;34804;49.214;12.276;2023-02-24T07:01:24;32.30;;;18.13;;
48993;SDS011;34804;49.214;12.276;2023-02-24T07:03:54;35.30;;;19.48;;
48993;SDS011;34804;49.214;12.276;2023-02-24T07:06:44;39.92;;;19.77;;
48993;SDS011;34804;49.214;12.276;2023-02-24T07:09:19;38.47;;;18.95;;
48993;SDS011;34804;49.214;12.276;2023-02-24T07:11:47;38.08;;;18.20;;
48993;SDS011;34804;49.214;12.276;2023-02-24T07:14:18;34.67;;;18.95;;
48993;SDS011;34804;49.214;12.276;2023-02-24T07:16:46;36.50;;;20.00;;
48993;SDS011;34804;49.214;12.276;2023-02-24T07:19:20;40.67;;;20.25;;
48993;SDS011;34804;49.214;12.276;2023-02-24T07:21:49;42.63;;;20.20;;
48993;SDS011;34804;49.214;12.276;2023-02-24T07:24:19;31.80;;;18.40;;
48993;SDS011;34804;49.214;12.276;2023-02-24T07:26:54;39.65;;;19.80;;
48993;SDS011;34804;49.214;12.276;2023-02-24T07:29:23;34.00;;;19.30;;
48993;SDS011;34804;49.214;12.276;2023-02-24T07:31:51;37.25;;;19.02;;
48993;SDS011;34804;49.214;12.276;2023-02-24T07:34:22;36.35;;;18.20;;
48993;SDS011;34804;49.214;12.276;2023-02-24T07:36:51;38.35;;;19.60;;
48993;SDS011;34804;49.214;12.276;2023-02-24T07:39:18;43.10;;;20.65;;
48993;SDS011;34804;49.214;12.276;2023-02-24T07:41:48;36.35;;;18.45;;
48993;SDS011;34804;49.214;12.276;2023-02-24T07:44:17;41.45;;;20.17;;
48993;SDS011;34804;49.214;12.276;2023-02-24T07:46:45;40.17;;;20.83;;
48993;SDS011;34804;49.214;12.276;2023-02-24T07:49:21;40.10;;;19.50;;
48993;SDS011;34804;49.214;12.276;2023-02-24T07:51:51;37.20;;;20.35;;
48993;SDS011;34804;49.214;12.276;2023-02-24T07:54:20;36.88;;;19.55;;
48993;SDS011;34804;49.214;12.276;2023-02-24T07:56:48;38.63;;;19.67;;
48993;SDS011;34804;49.214;12.276;2023-02-24T07:59:22;38.85;;;19.30;;
48993;SDS011;34804;49.214;12.276;2023-02-24T08:01:51;37.17;;;20.75;;
48993;SDS011;34804;49.214;12.276;2023-02-24T08:04:25;35.78;;;19.10;;
48993;SDS011;34804;49.214;12.276;2023-02-24T08:06:54;43.33;;;20.73;;
48993;SDS011;34804;49.214;12.276;2023-02-24T08:09:25;37.38;;;19.85;;
48993;SDS011;34804;49.214;12.276;2023-02-24T08:12:11;36.33;;;18.80;;
48993;SDS011;34804;49.214;12.276;2023-02-24T08:14:47;37.13;;;18.60;;
48993;SDS011;34804;49.214;12.276;2023-02-24T08:17:17;34.17;;;18.00;;
48993;SDS011;34804;49.214;12.276;2023-02-24T08:19:50;38.00;;;19.30;;
48993;SDS011;34804;49.214;12.276;2023-02-24T08:22:41;34.58;;;18.80;;
48993;SDS011;34804;49.214;12.276;2023-02-24T08:25:12;36.95;;;18.35;;
48993;SDS011;34804;49.214;12.276;2023-02-24T08:27:45;35.83;;;19.25;;
48993;SDS011;34804;49.214;12.276;2023-02-24T08:30:33;41.83;;;19.75;;
48993;SDS011;34804;49.214;12.276;2023-02-24T08:33:06;36.80;;;18.98;;
48993;SDS011;34804;49.214;12.276;2023-02-24T08:35:36;35.13;;;18.25;;
48993;SDS011;34804;49.214;12.276;2023-02-24T08:38:11;36.42;;;18.85;;
48993;SDS011;34804;49.214;12.276;2023-02-24T08:40:42;34.78;;;18.27;;
48993;SDS011;34804;49.214;12.276;2023-02-24T08:43:18;34.20;;;17.45;;
48993;SDS011;34804;49.214;12.276;2023-02-24T08:53:49;32.05;;;16.88;;
48993;SDS011;34804;49.214;12.276;2023-02-24T08:56:21;28.83;;;16.52;;
48993;SDS011;34804;49.214;12.276;2023-02-24T08:58:55;32.58;;;16.73;;
48993;SDS011;34804;49.214;12.276;2023-02-24T09:01:39;33.88;;;15.32;;
48993;SDS011;34804;49.214;12.276;2023-02-24T09:04:30;27.33;;;15.60;;
48993;SDS011;34804;49.214;12.276;2023-02-24T09:06:59;31.52;;;16.38;;
48993;SDS011;34804;49.214;12.276;2023-02-24T09:09:37;30.05;;;16.63;;
48993;SDS011;34804;49.214;12.276;2023-02-24T09:12:07;31.13;;;16.38;;
48993;SDS011;34804;49.214;12.276;2023-02-24T09:14:57;28.15;;;15.70;;
48993;SDS011;34804;49.214;12.276;2023-02-24T09:17:32;28.95;;;15.70;;
48993;SDS011;34804;49.214;12.276;2023-02-24T09:20:07;33.33;;;16.75;;
48993;SDS011;34804;49.214;12.276;2023-02-24T09:22:51;26.38;;;14.70;;
48993;SDS011;34804;49.214;12.276;2023-02-24T09:25:35;27.33;;;15.05;;
48993;SDS011;34804;49.214;12.276;2023-02-24T09:33:28;27.85;;;14.40;;
48993;SDS011;34804;49.214;12.276;2023-02-24T09:36:05;26.58;;;14.80;;
48993;SDS011;34804;49.214;12.276;2023-02-24T09:38:46;24.10;;;13.82;;
48993;SDS011;34804;49.214;12.276;2023-02-24T09:44:15;24.35;;;12.93;;
48993;SDS011;34804;49.214;12.276;2023-02-24T09:46:49;26.42;;;14.38;;
48993;SDS011;34804;49.214;12.276;2023-02-24T09:52:12;23.52;;;12.80;;
48993;SDS011;34804;49.214;12.276;2023-02-24T09:54:43;25.20;;;13.60;;
48993;SDS011;34804;49.214;12.276;2023-02-24T09:57:56;22.85;;;12.35;;
48993;SDS011;34804;49.214;12.276;2023-02-24T10:00:49;22.00;;;12.68;;
48993;SDS011;34804;49.214;12.276;2023-02-24T10:07:04;20.75;;;12.57;;
48993;SDS011;34804;49.214;12.276;2023-02-24T10:09:36;23.80;;;12.13;;
48993;SDS011;34804;49.214;12.276;2023-02-24T10:12:13;22.35;;;12.30;;
48993;SDS011;34804;49.214;12.276;2023-02-24T10:17:59;22.90;;;12.95;;
48993;SDS011;34804;49.214;12.276;2023-02-24T10:21:01;21.88;;;11.45;;
48993;SDS011;34804;49.214;12.276;2023-02-24T10:24:31;22.45;;;12.05;;
48993;SDS011;34804;49.214;12.276;2023-02-24T10:26:56;23.20;;;12.98;;
48993;SDS011;34804;49.214;12.276;2023-02-24T10:35:13;22.05;;;12.10;;
48993;SDS011;34804;49.214;12.276;2023-02-24T10:37:42;19.45;;;10.93;;
48993;SDS011;34804;49.214;12.276;2023-02-24T10:40:10;19.73;;;11.23;;
48993;SDS011;34804;49.214;12.276;2023-02-24T10:42:42;23.20;;;11.70;;
48993;SDS011;34804;49.214;12.276;2023-02-24T10:47:53;19.88;;;11.23;;
48993;SDS011;34804;49.214;12.276;2023-02-24T10:50:32;22.70;;;11.63;;
48993;SDS011;34804;49.214;12.276;2023-02-24T10:53:23;21.83;;;11.25;;
48993;SDS011;34804;49.214;12.276;2023-02-24T10:56:10;19.77;;;10.13;;
48993;SDS011;34804;49.214;12.276;2023-02-24T10:58:59;20.98;;;11.88;;
48993;SDS011;34804;49.214;12.276;2023-02-24T11:01:52;19.42;;;10.20;;
48993;SDS011;34804;49.214;12.276;2023-02-24T11:04:42;20.48;;;11.10;;
48993;SDS011;34804;49.214;12.276;2023-02-24T11:07:30;18.15;;;9.25;;
48993;SDS011;34804;49.214;12.276;2023-02-24T11:10:20;18.95;;;10.90;;
48993;SDS011;34804;49.214;12.276;2023-02-24T11:12:58;21.77;;;10.82;;
48993;SDS011;34804;49.214;12.276;2023-02-24T11:15:49;21.75;;;11.10;;
48993;SDS011;34804;49.214;12.276;2023-02-24T11:18:54;22.98;;;11.05;;
48993;SDS011;34804;49.214;12.276;2023-02-24T11:21:23;21.92;;;11.07;;
48993;SDS011;34804;49.214;12.276;2023-02-24T11:23:55;22.52;;;10.60;;
48993;SDS011;34804;49.214;12.276;2023-02-24T11:26:25;24.27;;;11.75;;
48993;SDS011;34804;49.214;12.276;2023-02-24T11:29:15;19.17;;;10.75;;
48993;SDS011;34804;49.214;12.276;2023-02-24T11:34:54;20.35;;;11.27;;
48993;SDS011;34804;49.214;12.276;2023-02-24T11:37:32;21.10;;;11.95;;
48993;SDS011;34804;49.214;12.276;2023-02-24T11:40:09;20.85;;;10.93;;
48993;SDS011;34804;49.214;12.276;2023-02-24T11:43:25;19.50;;;10.75;;
48993;SDS011;34804;49.214;12.276;2023-02-24T11:45:53;19.25;;;10.32;;
48993;SDS011;34804;49.214;12.276;2023-02-24T11:48:26;22.57;;;10.40;;
48993;SDS011;34804;49.214;12.276;2023-02-24T11:56:24;20.15;;;9.60;;
48993;SDS011;34804;49.214;12.276;2023-02-24T11:59:11;19.20;;;9.67;;
48993;SDS011;34804;49.214;12.276;2023-02-24T12:01:57;21.33;;;10.20;;
48993;SDS011;34804;49.214;12.276;2023-02-24T12:04:37;20.90;;;10.60;;
48993;SDS011;34804;49.214;12.276;2023-02-24T12:07:21;19.67;;;10.95;;
48993;SDS011;34804;49.214;12.276;2023-02-24T12:10:04;21.50;;;11.13;;
48993;SDS011;34804;49.214;12.276;2023-02-24T12:15:18;22.23;;;10.95;;
48993;SDS011;34804;49.214;12.276;2023-02-24T12:17:58;17.75;;;9.60;;
48993;SDS011;34804;49.214;12.276;2023-02-24T12:20:45;21.58;;;10.63;;
48993;SDS011;34804;49.214;12.276;2023-02-24T12:23:21;18.85;;;10.38;;
48993;SDS011;34804;49.214;12.276;2023-02-24T12:37:47;20.15;;;10.93;;
48993;SDS011;34804;49.214;12.276;2023-02-24T12:40:28;19.98;;;10.70;;
48993;SDS011;34804;49.214;12.276;2023-02-24T12:43:35;19.30;;;10.18;;
48993;SDS011;34804;49.214;12.276;2023-02-24T12:54:54;21.13;;;10.50;;
48993;SDS011;34804;49.214;12.276;2023-02-24T12:57:41;22.95;;;10.45;;
48993;SDS011;34804;49.214;12.276;2023-02-24T13:03:14;20.55;;;9.85;;
48993;SDS011;34804;49.214;12.276;2023-02-24T13:05:47;20.20;;;10.07;;
48993;SDS011;34804;49.214;12.276;2023-02-24T13:14:11;21.20;;;9.70;;
48993;SDS011;34804;49.214;12.276;2023-02-24T13:16:46;20.48;;;10.40;;
48993;SDS011;34804;49.214;12.276;2023-02-24T13:22:05;19.75;;;10.27;;
48993;SDS011;34804;49.214;12.276;2023-02-24T13:27:22;17.75;;;10.13;;
48993;SDS011;34804;49.214;12.276;2023-02-24T13:29:55;19.27;;;10.13;;
48993;SDS011;34804;49.214;12.276;2023-02-24T13:35:03;19.85;;;9.73;;
48993;SDS011;34804;49.214;12.276;2023-02-24T13:37:51;21.23;;;10.07;;
48993;SDS011;34804;49.214;12.276;2023-02-24T13:45:22;19.35;;;9.48;;
48993;SDS011;34804;49.214;12.276;2023-02-24T13:47:56;19.92;;;9.55;;
48993;SDS011;34804;49.214;12.276;2023-02-24T13:53:16;20.33;;;8.68;;
48993;SDS011;34804;49.214;12.276;2023-02-24T14:01:20;16.35;;;8.55;;
48993;SDS011;34804;49.214;12.276;2023-02-24T14:04:01;17.70;;;8.50;;
48993;SDS011;34804;49.214;12.276;2023-02-24T14:06:43;17.10;;;9.02;;
48993;SDS011;34804;49.214;12.276;2023-02-24T14:09:14;17.67;;;8.57;;
48993;SDS011;34804;49.214;12.276;2023-02-24T14:11:43;13.70;;;7.60;;
48993;SDS011;34804;49.214;12.276;2023-02-24T14:14:12;15.18;;;8.63;;
48993;SDS011;34804;49.214;12.276;2023-02-24T14:16:43;19.67;;;8.80;;
48993;SDS011;34804;49.214;12.276;2023-02-24T14:19:14;14.15;;;8.10;;
48993;SDS011;34804;49.214;12.276;2023-02-24T14:21:52;15.82;;;8.30;;
48993;SDS011;34804;49.214;12.276;2023-02-24T14:24:21;14.93;;;8.15;;
48993;SDS011;34804;49.214;12.276;2023-02-24T14:26:50;18.63;;;9.63;;
48993;SDS011;34804;49.214;12.276;2023-02-24T14:29:18;18.05;;;8.40;;
48993;SDS011;34804;49.214;12.276;2023-02-24T14:31:49;16.95;;;8.65;;
48993;SDS011;34804;49.214;12.276;2023-02-24T14:34:19;17.00;;;8.60;;
48993;SDS011;34804;49.214;12.276;2023-02-24T14:36:48;21.15;;;9.15;;
48993;SDS011;34804;49.214;12.276;2023-02-24T14:39:19;17.60;;;8.40;;
48993;SDS011;34804;49.214;12.276;2023-02-24T14:41:51;15.30;;;7.93;;
48993;SDS011;34804;49.214;12.276;2023-02-24T14:44:39;18.63;;;8.30;;
48993;SDS011;34804;49.214;12.276;2023-02-24T14:47:14;14.10;;;7.80;;
48993;SDS011;34804;49.214;12.276;2023-02-24T14:49:50;13.88;;;7.75;;
48993;SDS011;34804;49.214;12.276;2023-02-24T14:52:34;15.63;;;7.50;;
48993;SDS011;34804;49.214;12.276;2023-02-24T14:55:24;17.83;;;8.30;;
48993;SDS011;34804;49.214;12.276;2023-02-24T14:58:18;17.42;;;7.80;;
48993;SDS011;34804;49.214;12.276;2023-02-24T15:00:52;17.20;;;7.70;;
48993;SDS011;34804;49.214;12.276;2023-02-24T15:03:25;17.80;;;7.88;;
48993;SDS011;34804;49.214;12.276;2023-02-24T15:05:55;19.90;;;8.40;;
48993;SDS011;34804;49.214;12.276;2023-02-24T15:08:33;17.73;;;7.93;;
48993;SDS011;34804;49.214;12.276;2023-02-24T15:11:09;19.33;;;8.50;;
48993;SDS011;34804;49.214;12.276;2023-02-24T15:14:03;20.23;;;9.02;;
48993;SDS011;34804;49.214;12.276;2023-02-24T15:16:35;22.05;;;8.95;;
48993;SDS011;34804;49.214;12.276;2023-02-24T15:19:02;14.93;;;8.43;;
48993;SDS011;34804;49.214;12.276;2023-02-24T15:21:37;18.85;;;9.20;;
48993;SDS011;34804;49.214;12.276;2023-02-24T15:26:53;18.88;;;8.55;;
48993;SDS011;34804;49.214;12.276;2023-02-24T15:29:23;18.27;;;9.73;;
48993;SDS011;34804;49.214;12.276;2023-02-24T15:31:53;16.83;;;9.02;;
48993;SDS011;34804;49.214;12.276;2023-02-24T15:34:23;18.77;;;9.25;;
48993;SDS011;34804;49.214;12.276;2023-02-24T15:36:50;20.17;;;9.75;;
48993;SDS011;34804;49.214;12.276;2023-02-24T15:39:21;21.23;;;10.52;;
48993;SDS011;34804;49.214;12.276;2023-02-24T15:41:51;20.30;;;10.18;;
48993;SDS011;34804;49.214;12.276;2023-02-24T15:44:50;19.70;;;10.38;;
48993;SDS011;34804;49.214;12.276;2023-02-24T15:49:50;20.67;;;9.50;;
48993;SDS011;34804;49.214;12.276;2023-02-24T15:52:19;24.70;;;9.30;;
48993;SDS011;34804;49.214;12.276;2023-02-24T15:54:49;23.52;;;8.95;;
48993;SDS011;34804;49.214;12.276;2023-02-24T15:57:16;26.90;;;10.10;;
48993;SDS011;34804;49.214;12.276;2023-02-24T15:59:43;22.60;;;9.90;;
48993;SDS011;34804;49.214;12.276;2023-02-24T16:02:17;26.35;;;11.05;;
48993;SDS011;34804;49.214;12.276;2023-02-24T16:04:46;20.73;;;9.70;;
48993;SDS011;34804;49.214;12.276;2023-02-24T16:07:21;24.92;;;9.48;;
48993;SDS011;34804;49.214;12.276;2023-02-24T16:09:51;19.73;;;9.68;;
48993;SDS011;34804;49.214;12.276;2023-02-24T16:12:23;24.02;;;10.30;;
48993;SDS011;34804;49.214;12.276;2023-02-24T16:14:54;20.65;;;9.93;;
48993;SDS011;34804;49.214;12.276;2023-02-24T16:20:00;20.52;;;9.02;;
48993;SDS011;34804;49.214;12.276;2023-02-24T16:22:27;21.13;;;10.05;;
48993;SDS011;34804;49.214;12.276;2023-02-24T16:24:54;22.30;;;10.32;;
48993;SDS011;34804;49.214;12.276;2023-02-24T16:27:21;20.30;;;9.15;;
48993;SDS011;34804;49.214;12.276;2023-02-24T16:29:49;21.65;;;9.63;;
48993;SDS011;34804;49.214;12.276;2023-02-24T16:32:16;20.60;;;9.95;;
48993;SDS011;34804;49.214;12.276;2023-02-24T16:34:43;21.88;;;9.20;;
48993;SDS011;34804;49.214;12.276;2023-02-24T16:37:23;20.05;;;9.60;;
48993;SDS011;34804;49.214;12.276;2023-02-24T16:39:52;18.98;;;8.98;;
48993;SDS011;34804;49.214;12.276;2023-02-24T16:42:20;21.83;;;9.98;;
48993;SDS011;34804;49.214;12.276;2023-02-24T16:44:48;21.15;;;9.38;;
48993;SDS011;34804;49.214;12.276;2023-02-24T16:47:16;23.38;;;9.52;;
48993;SDS011;34804;49.214;12.276;2023-02-24T16:49:45;22.45;;;9.30;;
48993;SDS011;34804;49.214;12.276;2023-02-24T16:52:12;21.13;;;10.05;;
48993;SDS011;34804;49.214;12.276;2023-02-24T16:54:44;20.35;;;9.75;;
48993;SDS011;34804;49.214;12.276;2023-02-24T16:57:11;23.05;;;10.15;;
48993;SDS011;34804;49.214;12.276;2023-02-24T16:59:38;20.38;;;9.50;;
48993;SDS011;34804;49.214;12.276;2023-02-24T17:02:05;23.13;;;10.13;;
48993;SDS011;34804;49.214;12.276;2023-02-24T17:04:32;17.08;;;7.13;;
48993;SDS011;34804;49.214;12.276;2023-02-24T17:06:59;18.33;;;7.88;;
48993;SDS011;34804;49.214;12.276;2023-02-24T17:09:26;19.17;;;7.10;;